createdAt,value
2022-12-19T00:00:52.016Z,16.80
2022-12-19T00:03:22.007Z,19.17
2022-12-19T00:05:52.072Z,19.02
2022-12-19T00:08:24.772Z,17.95
2022-12-19T00:11:01.254Z,18.85
2022-12-19T00:13:39.943Z,18.88
2022-12-19T00:16:15.671Z,18.85
2022-12-19T00:18:51.066Z,19.70
2022-12-19T00:21:28.199Z,22.88
2022-12-19T00:23:58.641Z,23.67
2022-12-19T00:26:33.874Z,26.00
2022-12-19T00:29:11.158Z,27.98
2022-12-19T00:31:44.039Z,30.63
2022-12-19T00:34:14.045Z,32.83
2022-12-19T00:36:44.010Z,33.78
2022-12-19T00:39:13.933Z,32.42
2022-12-19T00:41:44.741Z,24.98
2022-12-19T00:44:16.282Z,20.55
2022-12-19T00:46:52.816Z,19.20
2022-12-19T00:49:23.732Z,17.48
2022-12-19T00:51:53.633Z,16.40
2022-12-19T00:54:23.470Z,17.02
2022-12-19T00:56:53.453Z,17.08
2022-12-19T00:59:26.389Z,16.60
2022-12-19T01:01:57.460Z,15.60
2022-12-19T01:04:28.544Z,16.90
2022-12-19T01:07:01.754Z,16.52
2022-12-19T01:09:33.424Z,16.75
2022-12-19T01:12:24.413Z,16.08
2022-12-19T01:14:58.777Z,16.67
2022-12-19T01:17:43.693Z,16.30
2022-12-19T01:20:20.219Z,16.05
2022-12-19T01:23:00.707Z,15.70
2022-12-19T01:25:30.928Z,14.77
2022-12-19T01:28:00.853Z,13.32
2022-12-19T01:30:31.291Z,11.77
2022-12-19T01:33:03.421Z,14.07
2022-12-19T01:35:33.259Z,14.55
2022-12-19T01:38:08.486Z,15.23
2022-12-19T01:40:39.057Z,14.30
2022-12-19T01:43:14.598Z,13.80
2022-12-19T01:45:46.103Z,15.38
2022-12-19T01:48:30.313Z,15.80
2022-12-19T01:51:04.884Z,13.98
2022-12-19T01:53:49.183Z,14.45
2022-12-19T01:56:24.060Z,14.35
2022-12-19T01:59:05.818Z,13.85
2022-12-19T02:01:51.048Z,13.15
2022-12-19T02:04:23.016Z,12.38
2022-12-19T02:06:53.923Z,11.57
2022-12-19T02:09:23.639Z,11.93
2022-12-19T02:11:53.466Z,11.18
2022-12-19T02:14:23.394Z,11.52
2022-12-19T02:17:12.784Z,12.80
2022-12-19T02:20:15.058Z,11.40
2022-12-19T02:23:24.629Z,10.90
2022-12-19T02:26:17.724Z,11.90
2022-12-19T02:29:25.930Z,12.27
2022-12-19T02:32:09.372Z,12.18
2022-12-19T02:34:46.416Z,12.30
2022-12-19T02:37:34.691Z,12.00
2022-12-19T02:42:50.382Z,11.60
2022-12-19T02:45:28.379Z,10.95
2022-12-19T02:48:05.815Z,12.10
2022-12-19T02:50:44.270Z,14.35
2022-12-19T02:53:17.174Z,12.50
2022-12-19T02:56:29.341Z,12.07
2022-12-19T02:59:28.048Z,11.18
2022-12-19T03:02:18.090Z,10.88
2022-12-19T03:05:01.783Z,9.25
2022-12-19T03:07:51.554Z,8.65
2022-12-19T03:10:45.973Z,8.48
2022-12-19T03:13:41.784Z,9.07
2022-12-19T03:16:13.295Z,9.40
2022-12-19T03:18:44.048Z,9.10
2022-12-19T03:21:27.345Z,8.85
2022-12-19T03:23:59.542Z,8.13
2022-12-19T03:26:35.995Z,7.75
2022-12-19T03:29:34.770Z,8.75
2022-12-19T03:32:09.326Z,8.85
2022-12-19T03:34:49.236Z,9.25
2022-12-19T03:37:23.147Z,8.73
2022-12-19T03:39:59.514Z,9.18
2022-12-19T03:42:52.340Z,9.32
2022-12-19T03:45:32.960Z,8.65
2022-12-19T03:48:09.464Z,9.35
2022-12-19T03:50:56.472Z,8.60
2022-12-19T03:53:52.391Z,8.15
2022-12-19T03:56:49.053Z,8.32
2022-12-19T03:59:32.626Z,7.55
2022-12-19T04:02:04.700Z,8.55
2022-12-19T04:04:41.443Z,8.18
2022-12-19T04:07:12.710Z,8.95
2022-12-19T04:09:45.169Z,8.35
2022-12-19T04:12:21.631Z,7.95
2022-12-19T04:14:52.628Z,8.27
2022-12-19T04:17:50.118Z,7.22
2022-12-19T04:20:22.979Z,8.18
2022-12-19T04:23:20.081Z,8.25
2022-12-19T04:25:53.798Z,7.78
2022-12-19T04:28:47.732Z,7.90
2022-12-19T04:31:19.262Z,6.70
2022-12-19T04:33:49.183Z,7.82
2022-12-19T04:36:19.397Z,7.55
2022-12-19T04:38:49.314Z,8.20
2022-12-19T04:41:19.191Z,8.10
2022-12-19T04:43:49.154Z,8.05
2022-12-19T04:46:19.093Z,7.70
2022-12-19T04:48:49.067Z,7.18
2022-12-19T04:51:19.116Z,7.13
2022-12-19T04:53:48.968Z,7.20
2022-12-19T04:56:18.955Z,7.22
2022-12-19T04:58:49.063Z,6.38
2022-12-19T05:01:20.162Z,7.43
2022-12-19T05:03:54.323Z,6.63
2022-12-19T05:06:26.168Z,7.72
2022-12-19T05:08:56.085Z,7.55
2022-12-19T05:11:25.922Z,6.97
2022-12-19T05:13:55.803Z,7.00
2022-12-19T05:16:25.706Z,7.00
2022-12-19T05:18:57.029Z,7.57
2022-12-19T05:21:27.105Z,8.20
2022-12-19T05:23:57.565Z,8.13
2022-12-19T05:26:28.426Z,7.85
2022-12-19T05:28:58.408Z,7.28
2022-12-19T05:31:28.486Z,7.22
2022-12-19T05:33:58.527Z,7.10
2022-12-19T05:36:32.438Z,8.20
2022-12-19T05:39:02.958Z,7.53
2022-12-19T05:41:32.903Z,8.00
2022-12-19T05:44:02.950Z,8.68
2022-12-19T05:46:32.949Z,8.25
2022-12-19T05:49:02.810Z,6.82
2022-12-19T05:51:33.333Z,6.68
2022-12-19T05:54:03.794Z,7.10
2022-12-19T05:56:33.873Z,6.72
2022-12-19T05:59:03.783Z,7.93
2022-12-19T06:01:34.114Z,7.35
2022-12-19T06:04:04.093Z,7.10
2022-12-19T06:06:34.071Z,6.47
2022-12-19T06:09:04.424Z,7.18
2022-12-19T06:11:34.334Z,7.45
2022-12-19T06:14:04.318Z,6.82
2022-12-19T06:16:34.246Z,7.60
2022-12-19T06:19:04.329Z,8.20
2022-12-19T06:21:34.170Z,8.15
2022-12-19T06:24:04.091Z,7.40
2022-12-19T06:26:34.502Z,7.57
2022-12-19T06:29:04.057Z,8.35
2022-12-19T06:31:33.643Z,7.47
2022-12-19T06:34:04.211Z,7.80
2022-12-19T06:36:33.854Z,7.95
2022-12-19T06:39:03.471Z,7.60
2022-12-19T06:41:52.701Z,6.78
2022-12-19T06:44:22.300Z,6.68
2022-12-19T06:46:53.907Z,6.38
2022-12-19T06:49:23.507Z,8.60
2022-12-19T06:51:53.162Z,6.68
2022-12-19T06:54:22.845Z,7.50
2022-12-19T06:56:52.350Z,8.18
2022-12-19T06:59:21.908Z,7.60
2022-12-19T07:02:20.618Z,7.22
2022-12-19T07:04:54.198Z,6.57
2022-12-19T07:07:23.769Z,6.88
2022-12-19T07:09:53.408Z,7.28
2022-12-19T07:12:22.989Z,6.90
2022-12-19T07:14:53.756Z,6.72
2022-12-19T07:17:26.116Z,6.93
2022-12-19T07:20:00.470Z,7.20
2022-12-19T07:22:35.159Z,7.72
2022-12-19T07:25:06.274Z,6.45
2022-12-19T07:27:37.655Z,6.38
2022-12-19T07:30:09.515Z,6.95
2022-12-19T07:32:39.207Z,6.43
2022-12-19T07:35:09.759Z,7.22
2022-12-19T07:37:39.342Z,7.57
2022-12-19T07:40:09.494Z,7.60
2022-12-19T07:42:39.091Z,7.25
2022-12-19T07:45:09.231Z,6.93
2022-12-19T07:47:38.769Z,6.93
2022-12-19T07:50:08.576Z,6.47
2022-12-19T07:52:38.281Z,6.47
2022-12-19T07:55:08.246Z,6.75
2022-12-19T07:57:37.790Z,6.75
2022-12-19T08:00:08.372Z,6.13
2022-12-19T08:02:38.372Z,6.30
2022-12-19T08:05:08.480Z,6.97
2022-12-19T08:07:38.187Z,7.00
2022-12-19T08:10:08.652Z,7.07
2022-12-19T08:12:38.231Z,7.55
2022-12-19T08:15:08.669Z,9.48
2022-12-19T08:17:42.314Z,9.00
2022-12-19T08:20:15.814Z,7.28
2022-12-19T08:22:45.436Z,6.13
2022-12-19T08:25:14.983Z,6.47
2022-12-19T08:27:45.576Z,6.28
2022-12-19T08:30:15.714Z,6.82
2022-12-19T08:32:46.744Z,7.07
2022-12-19T08:35:16.373Z,6.32
2022-12-19T08:37:46.228Z,6.60
2022-12-19T08:40:15.920Z,7.70
2022-12-19T08:42:45.469Z,6.13
2022-12-19T08:45:15.183Z,6.95
2022-12-19T08:47:45.469Z,7.15
2022-12-19T08:50:15.942Z,6.88
2022-12-19T08:52:46.462Z,8.30
2022-12-19T08:55:17.252Z,6.53
2022-12-19T08:57:46.796Z,6.70
2022-12-19T09:00:16.910Z,6.85
2022-12-19T09:02:47.417Z,7.13
2022-12-19T09:06:01.283Z,6.63
2022-12-19T09:08:08.048Z,7.00
2022-12-19T09:10:41.283Z,6.63
2022-12-19T09:13:10.839Z,6.10
2022-12-19T09:15:40.507Z,7.40
2022-12-19T09:18:11.588Z,6.13
2022-12-19T09:20:41.177Z,6.80
2022-12-19T09:23:10.699Z,7.00
2022-12-19T09:25:40.247Z,7.18
2022-12-19T09:28:27.199Z,6.65
2022-12-19T09:31:06.833Z,6.65
2022-12-19T09:33:43.334Z,6.88
2022-12-19T09:36:19.667Z,6.68
2022-12-19T09:38:50.734Z,6.05
2022-12-19T09:41:39.915Z,6.60
2022-12-19T09:44:48.813Z,6.00
2022-12-19T09:47:27.114Z,7.35
2022-12-19T09:49:57.300Z,6.40
2022-12-19T09:52:51.721Z,7.15
2022-12-19T09:55:35.347Z,6.68
2022-12-19T09:58:14.635Z,6.68
2022-12-19T10:00:55.979Z,7.35
2022-12-19T10:03:48.969Z,6.38
2022-12-19T10:07:12.514Z,6.10
2022-12-19T10:11:52.917Z,6.28
2022-12-19T10:12:45.128Z,6.75
2022-12-19T10:15:43.211Z,6.97
2022-12-19T10:18:44.088Z,6.93
2022-12-19T10:22:16.221Z,6.68
2022-12-19T10:25:13.710Z,6.57
2022-12-19T10:28:16.167Z,6.32
2022-12-19T10:31:05.103Z,6.95
2022-12-19T10:34:08.137Z,6.65
2022-12-19T10:39:50.988Z,6.70
2022-12-19T10:43:02.597Z,7.28
2022-12-19T10:45:50.446Z,7.18
2022-12-19T10:48:30.975Z,6.82
2022-12-19T10:51:06.078Z,6.80
2022-12-19T10:53:37.025Z,7.53
2022-12-19T10:56:33.183Z,6.75
2022-12-19T10:59:17.848Z,6.65
2022-12-19T11:01:51.770Z,7.43
2022-12-19T11:04:37.852Z,6.95
2022-12-19T11:07:20.093Z,6.88
2022-12-19T11:10:36.454Z,8.30
2022-12-19T11:17:39.014Z,12.45
2022-12-19T11:20:07.516Z,20.27
2022-12-19T11:26:53.149Z,25.80
2022-12-19T11:29:42.718Z,25.65
2022-12-19T11:30:48.180Z,21.70
2022-12-19T11:30:59.409Z,26.50
2022-12-19T11:33:34.879Z,15.02
2022-12-19T11:36:08.075Z,13.02
2022-12-19T11:38:57.441Z,12.48
2022-12-19T11:41:44.618Z,11.80
2022-12-19T11:44:41.335Z,10.73
2022-12-19T11:47:38.968Z,11.02
2022-12-19T11:50:21.620Z,11.30
2022-12-19T11:53:19.111Z,15.63
2022-12-19T11:58:24.271Z,14.50
2022-12-19T12:01:33.043Z,18.73
2022-12-19T12:04:36.013Z,18.58
2022-12-19T12:07:30.610Z,20.70
2022-12-19T12:14:58.331Z,20.17
2022-12-19T12:21:38.693Z,19.35
2022-12-19T12:30:03.732Z,19.80
2022-12-19T12:31:08.219Z,21.70
2022-12-19T12:31:10.493Z,21.55
2022-12-19T12:31:50.789Z,20.77
2022-12-19T12:31:52.575Z,21.55
2022-12-19T12:35:31.718Z,20.45
2022-12-19T12:39:03.075Z,21.02
2022-12-19T12:42:07.449Z,18.80
2022-12-19T12:44:46.238Z,19.25
2022-12-19T12:47:26.321Z,40.50
2022-12-19T12:50:09.070Z,29.88
2022-12-19T12:52:45.863Z,24.20
2022-12-19T12:55:26.178Z,20.85
2022-12-19T12:57:55.824Z,22.77
2022-12-19T13:00:30.843Z,24.98
2022-12-19T13:03:13.230Z,23.55
2022-12-19T13:05:56.546Z,32.40
2022-12-19T13:08:50.241Z,42.58
2022-12-19T13:12:00.750Z,37.28
2022-12-19T13:14:51.198Z,28.13
2022-12-19T13:17:41.766Z,27.88
2022-12-19T13:20:48.603Z,28.50
2022-12-19T13:23:45.111Z,29.40
2022-12-19T13:26:54.060Z,28.23
2022-12-19T13:29:34.331Z,28.05
2022-12-19T13:32:16.251Z,31.63
2022-12-19T13:36:41.185Z,29.15
2022-12-19T13:39:56.402Z,28.52
2022-12-19T13:41:50.332Z,28.20
2022-12-19T13:44:24.842Z,27.50
2022-12-19T13:46:57.087Z,30.10
2022-12-19T13:49:34.719Z,27.70
2022-12-19T13:54:47.430Z,30.67
2022-12-19T13:57:29.852Z,27.65
2022-12-19T14:00:08.791Z,28.63
2022-12-19T14:02:45.357Z,28.05
2022-12-19T14:06:18.689Z,27.58
2022-12-19T14:08:27.597Z,28.70
2022-12-19T14:11:34.423Z,28.67
2022-12-19T14:14:27.681Z,27.08
2022-12-19T14:17:07.297Z,26.27
2022-12-19T14:19:42.548Z,26.33
2022-12-19T14:22:29.167Z,25.80
2022-12-19T14:25:45.107Z,26.63
2022-12-19T14:28:16.786Z,25.88
2022-12-19T14:31:03.893Z,24.23
2022-12-19T14:34:04.312Z,24.95
2022-12-19T14:36:35.886Z,24.17
2022-12-19T14:39:27.906Z,22.60
2022-12-19T14:42:31.558Z,23.15
2022-12-19T14:51:51.454Z,22.17
2022-12-19T14:54:17.042Z,23.77
2022-12-19T14:54:22.463Z,21.27
2022-12-19T14:56:13.564Z,21.85
2022-12-19T14:58:50.645Z,22.92
2022-12-19T15:01:09.439Z,24.25
2022-12-19T15:03:37.523Z,25.90
2022-12-19T15:07:05.214Z,25.58
2022-12-19T15:11:02.373Z,25.40
2022-12-19T15:14:46.843Z,24.23
2022-12-19T15:15:37.929Z,24.92
2022-12-19T15:18:24.484Z,22.80
2022-12-19T15:20:57.516Z,22.67
2022-12-19T15:23:27.921Z,22.05
2022-12-19T15:26:03.939Z,20.75
2022-12-19T15:28:44.232Z,21.83
2022-12-19T15:31:36.754Z,18.35
2022-12-19T15:34:40.202Z,20.48
2022-12-19T15:37:17.771Z,19.15
2022-12-19T15:39:47.962Z,17.90
2022-12-19T15:42:25.627Z,17.35
2022-12-19T15:44:59.015Z,16.58
2022-12-19T15:47:38.475Z,16.58
2022-12-19T15:50:25.799Z,16.25
2022-12-19T15:52:59.201Z,16.75
2022-12-19T15:55:32.606Z,17.35
2022-12-19T15:58:05.562Z,15.75
2022-12-19T16:00:38.306Z,16.67
2022-12-19T16:03:24.838Z,16.67
2022-12-19T16:05:55.646Z,16.85
2022-12-19T16:08:29.898Z,16.60
2022-12-19T16:11:02.182Z,16.30
2022-12-19T16:13:36.428Z,16.80
2022-12-19T16:16:13.133Z,16.38
2022-12-19T16:18:46.210Z,16.38
2022-12-19T16:21:34.317Z,16.55
2022-12-19T16:26:37.549Z,16.23
2022-12-19T16:29:08.231Z,16.13
2022-12-19T16:31:37.888Z,16.65
2022-12-19T16:34:20.921Z,15.18
2022-12-19T16:36:51.592Z,15.93
2022-12-19T16:39:21.436Z,15.38
2022-12-19T16:41:51.707Z,15.75
2022-12-19T16:44:27.219Z,16.75
2022-12-19T16:46:57.112Z,15.90
2022-12-19T16:49:27.129Z,15.63
2022-12-19T16:51:57.068Z,15.50
2022-12-19T16:54:26.959Z,14.82
2022-12-19T16:56:57.021Z,15.68
2022-12-19T16:59:41.856Z,15.90
2022-12-19T17:02:44.090Z,15.35
2022-12-19T17:05:20.483Z,15.73
2022-12-19T17:07:50.813Z,14.73
2022-12-19T17:10:26.089Z,14.57
2022-12-19T17:12:58.641Z,15.77
2022-12-19T17:15:32.974Z,15.05
2022-12-19T17:18:15.654Z,14.18
2022-12-19T17:20:47.690Z,14.98
2022-12-19T17:23:22.156Z,14.00
2022-12-19T17:25:52.700Z,14.50
2022-12-19T17:28:22.604Z,14.43
2022-12-19T17:30:55.564Z,13.77
2022-12-19T17:33:29.790Z,13.90
2022-12-19T17:35:59.684Z,14.63
2022-12-19T17:38:29.575Z,14.23
2022-12-19T17:40:59.836Z,15.40
2022-12-19T17:43:30.120Z,14.93
2022-12-19T17:46:00.465Z,15.35
2022-12-19T17:48:33.340Z,14.65
2022-12-19T17:51:03.219Z,14.07
2022-12-19T17:53:33.073Z,14.88
2022-12-19T17:56:03.028Z,14.05
2022-12-19T17:58:32.940Z,13.77
2022-12-19T18:01:03.220Z,16.00
2022-12-19T18:03:33.358Z,14.90
2022-12-19T18:06:07.277Z,13.63
2022-12-19T18:08:40.217Z,15.23
2022-12-19T18:11:22.220Z,15.20
2022-12-19T18:13:52.376Z,15.07
2022-12-19T18:16:32.507Z,15.00
2022-12-19T18:19:02.254Z,14.18
2022-12-19T18:21:31.789Z,14.10
2022-12-19T18:24:01.324Z,14.27
2022-12-19T18:26:31.880Z,13.18
2022-12-19T18:29:01.454Z,14.23
2022-12-19T18:31:31.199Z,13.85
2022-12-19T18:34:07.306Z,14.07
2022-12-19T18:36:42.470Z,15.52
2022-12-19T18:39:24.145Z,14.27
2022-12-19T18:41:54.279Z,13.38
2022-12-19T18:44:27.352Z,13.35
2022-12-19T18:46:57.347Z,13.65
2022-12-19T18:49:29.625Z,13.50
2022-12-19T18:51:59.683Z,13.77
2022-12-19T18:54:30.844Z,13.00
2022-12-19T18:57:00.722Z,12.90
2022-12-19T18:59:30.665Z,14.30
2022-12-19T19:02:02.266Z,14.68
2022-12-19T19:04:32.320Z,16.40
2022-12-19T19:07:02.204Z,17.08
2022-12-19T19:09:32.208Z,16.88
2022-12-19T19:12:02.369Z,15.48
2022-12-19T19:14:32.811Z,15.95
2022-12-19T19:17:02.801Z,14.95
2022-12-19T19:19:32.906Z,14.02
2022-12-19T19:22:02.839Z,13.27
2022-12-19T19:24:32.913Z,13.02
2022-12-19T19:27:02.812Z,13.45
2022-12-19T19:29:32.864Z,14.30
2022-12-19T19:32:03.342Z,12.80
2022-12-19T19:34:37.295Z,12.48
2022-12-19T19:37:09.696Z,13.02
2022-12-19T19:39:39.578Z,12.90
2022-12-19T19:42:09.699Z,12.65
2022-12-19T19:44:39.569Z,12.80
2022-12-19T19:47:09.522Z,13.50
2022-12-19T19:49:39.547Z,12.38
2022-12-19T19:52:09.760Z,13.15
2022-12-19T19:54:40.019Z,11.93
2022-12-19T19:57:10.007Z,12.60
2022-12-19T19:59:39.957Z,12.55
2022-12-19T20:02:14.648Z,12.90
2022-12-19T20:04:47.311Z,14.13
2022-12-19T20:07:18.992Z,13.93
2022-12-19T20:09:49.018Z,13.75
2022-12-19T20:12:19.202Z,14.27
2022-12-19T20:14:50.184Z,15.18
2022-12-19T20:17:20.120Z,14.05
2022-12-19T20:19:50.173Z,15.48
2022-12-19T20:22:21.054Z,14.68
2022-12-19T20:24:50.923Z,15.15
2022-12-19T20:27:20.823Z,16.50
2022-12-19T20:29:50.707Z,14.80
2022-12-19T20:32:20.674Z,15.60
2022-12-19T20:34:50.593Z,13.75
2022-12-19T20:37:20.631Z,14.38
2022-12-19T20:39:50.590Z,11.90
2022-12-19T20:42:21.104Z,14.30
2022-12-19T20:44:51.036Z,13.77
2022-12-19T20:47:21.024Z,13.90
2022-12-19T20:49:50.951Z,13.27
2022-12-19T20:52:20.993Z,12.25
2022-12-19T20:54:50.874Z,13.25
2022-12-19T20:57:20.795Z,13.20
2022-12-19T20:59:50.689Z,13.20
2022-12-19T21:02:20.722Z,13.65
2022-12-19T21:04:50.862Z,13.13
2022-12-19T21:07:20.621Z,13.98
2022-12-19T21:09:51.969Z,12.85
2022-12-19T21:12:23.469Z,13.75
2022-12-19T21:14:53.639Z,13.15
2022-12-19T21:17:23.705Z,14.48
2022-12-19T21:19:53.706Z,13.35
2022-12-19T21:22:23.596Z,12.52
2022-12-19T21:24:53.548Z,12.85
2022-12-19T21:27:23.507Z,14.05
2022-12-19T21:29:53.528Z,14.63
2022-12-19T21:32:23.435Z,14.45
2022-12-19T21:34:55.381Z,13.80
2022-12-19T21:37:25.865Z,13.63
2022-12-19T21:39:55.783Z,13.95
2022-12-19T21:42:25.693Z,13.43
2022-12-19T21:44:55.639Z,13.65
2022-12-19T21:47:25.657Z,12.80
2022-12-19T21:49:55.550Z,13.00
2022-12-19T21:52:25.432Z,13.85
2022-12-19T21:54:55.360Z,12.98
2022-12-19T21:57:25.304Z,12.43
2022-12-19T21:59:55.219Z,13.10
2022-12-19T22:02:25.306Z,12.85
2022-12-19T22:04:55.048Z,13.05
2022-12-19T22:07:24.683Z,13.05
2022-12-19T22:09:54.299Z,13.93
2022-12-19T22:12:24.116Z,13.23
2022-12-19T22:14:55.811Z,13.60
2022-12-19T22:17:25.432Z,13.07
2022-12-19T22:19:55.014Z,13.80
2022-12-19T22:22:24.607Z,12.90
2022-12-19T22:24:54.191Z,13.10
2022-12-19T22:27:23.714Z,12.63
2022-12-19T22:29:53.317Z,13.60
2022-12-19T22:32:22.892Z,12.65
2022-12-19T22:34:52.458Z,13.43
2022-12-19T22:37:22.396Z,12.60
2022-12-19T22:39:51.945Z,12.95
2022-12-19T22:42:21.512Z,12.85
2022-12-19T22:44:51.065Z,14.20
2022-12-19T22:47:20.863Z,12.15
2022-12-19T22:49:54.054Z,13.25
2022-12-19T22:52:25.216Z,12.43
2022-12-19T22:54:54.769Z,13.98
2022-12-19T22:57:24.382Z,13.23
2022-12-19T22:59:53.902Z,12.65
2022-12-19T23:02:23.686Z,13.25
2022-12-19T23:04:53.503Z,13.73
2022-12-19T23:07:23.137Z,14.63
2022-12-19T23:09:52.780Z,14.88
2022-12-19T23:12:22.350Z,14.45
2022-12-19T23:14:52.138Z,13.13
2022-12-19T23:17:22.166Z,15.55
2022-12-19T23:19:51.707Z,14.52
2022-12-19T23:22:21.221Z,18.10
2022-12-19T23:24:51.048Z,14.88
2022-12-19T23:27:20.564Z,14.00
2022-12-19T23:29:51.807Z,14.07
2022-12-19T23:32:21.569Z,15.63
2022-12-19T23:34:51.282Z,15.63
2022-12-19T23:37:20.866Z,15.30
2022-12-19T23:39:50.426Z,18.15
2022-12-19T23:42:19.962Z,20.42
2022-12-19T23:44:49.715Z,22.85
2022-12-19T23:47:19.334Z,28.30
2022-12-19T23:49:48.871Z,26.30
2022-12-19T23:52:18.463Z,25.38
2022-12-19T23:54:49.007Z,27.88
2022-12-19T23:57:18.597Z,24.95
2022-12-19T23:59:48.223Z,23.00
